Buoy 41991

sailwx.info

Track history (hours):
 
Tides and Currents Weather Stations Pressure Air Temp Water Temp Dewpoint Dewpoint Depression Visibility Wind Speed Wind Dir Waves Ship Positions

Drifting buoy 41991

Last reported at 2015-Aug-31 04:01 UTC. Time now 2015-Aug-31 06:50 UTC.
Position N 28°26' W 044°01'.

Water temperature 27.9 ° C

Date/timePositionNaut miles runAvg speedWind from/ knotsBaromVisibWave heightAir tempDewpointWater temp
2015-Aug-31 04:01N 28°26' W 044°01'1 0.1 27.9
2015-Aug-30 23:47N 28°26' W 044°02'0 0.0 28.1
2015-Aug-30 23:42N 28°26' W 044°02'1 1.1 28.1
2015-Aug-30 22:59N 28°26' W 044°03'0 0.1 28.1
2015-Aug-30 21:48N 28°26' W 044°03'1 0.3 28.2
2015-Aug-30 20:06N 28°26' W 044°04'1 0.5
2015-Aug-30 18:57N 28°27' W 044°03'0 0.3 28.4
2015-Aug-30 17:56N 28°26' W 044°03'0 0.1 28.4
2015-Aug-30 13:25N 28°26' W 044°04'1 0.2 27.9
2015-Aug-30 09:56N 28°26' W 044°03'144.9 27.8
2015-Aug-30 09:55N 28°26' W 044°02'1 0.7 27.8
2015-Aug-30 08:42N 28°26' W 044°01'1 1.1 27.8
2015-Aug-30 08:11N 28°26' W 044°02'142.8 27.8
2015-Aug-30 08:09N 28°27' W 044°01'0 0.0 27.8
2015-Aug-30 07:09N 28°27' W 044°01'0 0.0 27.8
2015-Aug-30 07:03N 28°27' W 044°01'1 0.5 27.8
2015-Aug-30 05:57N 28°28' W 044°00'112.5 27.9
2015-Aug-30 05:52N 28°29' W 044°01'2 1.2 27.9
2015-Aug-30 04:10N 28°30' W 044°02'0 0.0 27.9
2015-Aug-30 01:46N 28°30' W 044°02'1 0.9 27.9
2015-Aug-30 00:56N 28°31' W 044°02'1 0.7 27.9
2015-Aug-29 23:11N 28°32' W 044°03'1 0.2 27.9
2015-Aug-29 18:09N 28°32' W 044°04'1 0.2 28.1
2015-Aug-29 11:57N 28°31' W 044°05'0 0.0 27.7
2015-Aug-29 11:07N 28°31' W 044°05'0 5.5 27.7
2015-Aug-29 11:03N 28°30' W 044°05'0 0.0 27.7
2015-Aug-29 10:08N 28°30' W 044°05'3 0.5 27.7
2015-Aug-29 04:29N 28°33' W 044°03'218.6 27.8
2015-Aug-29 04:22N 28°35' W 044°04'2 0.3 27.8
2015-Aug-28 22:47N 28°36' W 044°05'1 0.7 27.9
2015-Aug-28 21:02N 28°36' W 044°07'0 0.5 28.0
2015-Aug-28 20:01N 28°36' W 044°07'0 0.6 28.1
2015-Aug-28 19:56N 28°36' W 044°07'2 0.6 28.1
2015-Aug-28 15:57N 28°35' W 044°10'1 1.2 28.1
2015-Aug-28 14:47N 28°35' W 044°11'0 0.1 28.1
2015-Aug-28 14:04N 28°35' W 044°11'1 0.6 28.1
2015-Aug-28 12:28N 28°34' W 044°10'0 0.9 27.9
2015-Aug-28 12:14N 28°33' W 044°10'1 0.3
2015-Aug-28 09:46N 28°33' W 044°10'1 0.4 27.9
2015-Aug-28 08:04N 28°33' W 044°09'1 0.6 27.9
2015-Aug-28 06:54N 28°33' W 044°08'1 1.6
2015-Aug-28 06:15N 28°34' W 044°08'0 0.0 27.9
2015-Aug-28 04:42N 28°34' W 044°08'0 9.6
2015-Aug-28 04:41N 28°35' W 044°09'215.6 28.0
2015-Aug-28 04:34N 28°36' W 044°09'0 0.0 28.0
2015-Aug-28 01:35N 28°36' W 044°09'0 0.0 28.0
2015-Aug-28 00:49N 28°36' W 044°09'1 0.8 28.0
2015-Aug-27 23:57N 28°36' W 044°10'110.9 28.0
2015-Aug-27 23:54N 28°37' W 044°10'0 0.0 28.0
2015-Aug-27 23:09N 28°37' W 044°10'1 4.6 28.0
2015-Aug-27 23:02N 28°37' W 044°10'1 0.2 28.0
2015-Aug-27 20:11N 28°37' W 044°11'2 0.8 28.2
2015-Aug-27 17:57N 28°37' W 044°13'111.9 28.3
2015-Aug-27 17:52N 28°37' W 044°14'0 0.0 28.3
2015-Aug-27 16:10N 28°37' W 044°14'2 0.4 28.2
2015-Aug-27 10:11N 28°34' W 044°14'1 0.5 27.9
2015-Aug-27 08:39N 28°34' W 044°13'1 0.5 27.9
2015-Aug-27 07:10N 28°34' W 044°13'0 4.9 28.0
2015-Aug-27 07:04N 28°35' W 044°12'0 0.0 28.0
2015-Aug-27 06:46N 28°35' W 044°12'3 0.5 28.0
2015-Aug-27 01:02N 28°37' W 044°12'2 0.5 27.9
2015-Aug-26 21:50N 28°39' W 044°13'2 0.6 28.2
2015-Aug-26 18:07N 28°39' W 044°16'2 0.6 28.8
2015-Aug-26 14:42N 28°37' W 044°18'0 0.0 28.4
2015-Aug-26 13:53N 28°37' W 044°18'1 1.1 28.2
2015-Aug-26 13:02N 28°36' W 044°17'2 0.4 28.1
2015-Aug-26 08:57N 28°35' W 044°16'025.5 27.8
2015-Aug-26 08:56N 28°35' W 044°15'0 0.3 27.8
2015-Aug-26 07:12N 28°35' W 044°15'0 0.2
2015-Aug-26 05:02N 28°36' W 044°14'1 6.6 27.9
2015-Aug-26 04:53N 28°37' W 044°14'1 0.2
2015-Aug-26 00:42N 28°38' W 044°13'0 0.0 28.0
2015-Aug-25 23:50N 28°38' W 044°13'0 0.5 28.1
2015-Aug-25 23:02N 28°38' W 044°14'1 9.5 28.1
2015-Aug-25 22:55N 28°39' W 044°15'0 0.1
2015-Aug-25 22:05N 28°39' W 044°14'1 0.5 28.2
2015-Aug-25 20:37N 28°39' W 044°15'0 0.9 28.3
2015-Aug-25 20:11N 28°38' W 044°16'0 0.0 28.3
2015-Aug-25 18:56N 28°38' W 044°16'2 0.4 28.3
2015-Aug-25 14:51N 28°37' W 044°17'1 0.2 28.1
2015-Aug-25 11:48N 28°37' W 044°17'0 2.1 27.8
2015-Aug-25 11:42N 28°37' W 044°17'159.0
2015-Aug-25 11:41N 28°36' W 044°18'1 0.3 27.7
2015-Aug-25 09:11N 28°36' W 044°17'1 0.5 27.7
2015-Aug-25 06:57N 28°35' W 044°16'1 0.4 27.7
2015-Aug-25 05:10N 28°35' W 044°15'256.4 27.7
2015-Aug-25 05:08N 28°36' W 044°13'0 0.0 27.7
2015-Aug-25 01:02N 28°36' W 044°13'110.0 27.9
2015-Aug-25 00:57N 28°37' W 044°13'0 0.0 27.9
2015-Aug-25 00:10N 28°37' W 044°13'1 1.0 27.9
2015-Aug-24 23:17N 28°37' W 044°13'1 0.3 27.9
2015-Aug-24 20:56N 28°38' W 044°14'1 4.7 28.1
2015-Aug-24 20:49N 28°38' W 044°14'0 0.1 28.1
2015-Aug-24 19:09N 28°38' W 044°14'013.1 28.4
2015-Aug-24 19:07N 28°38' W 044°15'1 0.4 28.4
2015-Aug-24 15:07N 28°38' W 044°16'0 0.0 28.0
2015-Aug-24 13:50N 28°38' W 044°16'1 0.5 27.8
2015-Aug-24 12:03N 28°37' W 044°17'1 5.6
2015-Aug-24 11:57N 28°37' W 044°17'0 0.0 27.7
2015-Aug-24 11:08N 28°37' W 044°17'1 0.4 27.7
2015-Aug-24 08:32N 28°36' W 044°17'0 0.5 27.7
2015-Aug-24 08:04N 28°36' W 044°17'1 0.6 27.7
2015-Aug-24 06:51N 28°35' W 044°16'2 0.2 27.8
2015-Aug-23 22:51N 28°35' W 044°14'0 0.0 27.9
2015-Aug-23 20:57N 28°35' W 044°14'0 0.1 27.9
2015-Aug-23 19:17N 28°35' W 044°14'1 0.2 27.9
2015-Aug-23 16:56N 28°35' W 044°14'0 0.0 27.9
2015-Aug-23 16:54N 28°35' W 044°14'1 0.4 27.9
2015-Aug-23 14:50N 28°35' W 044°14'0 0.0 27.5
2015-Aug-23 14:09N 28°35' W 044°14'1 0.3 27.6
2015-Aug-23 10:11N 28°34' W 044°15'1 0.4 27.9
2015-Aug-23 07:56N 28°33' W 044°15'2 0.6 27.9
2015-Aug-23 03:57N 28°31' W 044°14'0 0.1 27.9
2015-Aug-23 01:40N 28°31' W 044°13'0 0.0 27.9
2015-Aug-23 00:51N 28°31' W 044°13'0 0.2 28.0
2015-Aug-23 00:07N 28°31' W 044°13'0 1.9 28.0
2015-Aug-23 00:01N 28°31' W 044°13'0 0.1 28.0
2015-Aug-22 21:48N 28°31' W 044°13'1 0.9 28.0
2015-Aug-22 21:08N 28°31' W 044°13'0 0.2 28.1
2015-Aug-22 18:49N 28°31' W 044°12'0 0.3 28.2
2015-Aug-22 17:11N 28°31' W 044°12'1 0.2 28.1
2015-Aug-22 11:52N 28°31' W 044°13'1 0.5 27.9
2015-Aug-22 09:49N 28°31' W 044°14'2 1.2 27.9
2015-Aug-22 08:02N 28°29' W 044°15'0 0.1 27.9
2015-Aug-22 07:10N 28°29' W 044°15'1 0.2 27.9
2015-Aug-22 04:07N 28°28' W 044°14'223.4 27.9
2015-Aug-22 04:03N 28°27' W 044°14'1 0.1 27.9
2015-Aug-21 17:57N 28°27' W 044°14'1 0.2 28.2
2015-Aug-21 13:56N 28°27' W 044°14'0 0.2 27.9
2015-Aug-21 12:11N 28°27' W 044°15'110.7 27.9
2015-Aug-21 12:07N 28°27' W 044°15'0 0.4 27.9
2015-Aug-21 10:56N 28°27' W 044°16'0 0.3 27.9
2015-Aug-21 10:01N 28°27' W 044°15'0 3.9 27.9
2015-Aug-21 09:59N 28°27' W 044°15'110.3 27.9
2015-Aug-21 09:53N 28°27' W 044°17'0 0.0 27.9
2015-Aug-21 09:14N 28°27' W 044°17'0 0.0 27.9
2015-Aug-21 08:26N 28°27' W 044°17'1 2.2 27.9
2015-Aug-21 08:10N 28°27' W 044°17'1 0.3 27.9
2015-Aug-21 05:56N 28°27' W 044°18'116.8 27.9
2015-Aug-21 05:53N 28°26' W 044°18'2 1.1 27.9
2015-Aug-21 04:13N 28°24' W 044°18'   28.0
Track history (hours):
 
Tides and Currents Weather Stations Pressure Air Temp Water Temp Dewpoint Dewpoint Depression Visibility Wind Speed Wind Dir Waves Ship Positions

Drifting buoy 41991

Last reported at 2015-Aug-31 04:01 UTC. Time now 2015-Aug-31 06:50 UTC.
Position N 28°26' W 044°01'.

Water temperature 27.9 ° C

Date/timePositionNaut miles runAvg speedWind from/ knotsBaromVisibWave heightAir tempDewpointWater temp
2015-Aug-31 04:01N 28°26' W 044°01'1 0.1 27.9
2015-Aug-30 23:47N 28°26' W 044°02'0 0.0 28.1
2015-Aug-30 23:42N 28°26' W 044°02'1 1.1 28.1
2015-Aug-30 22:59N 28°26' W 044°03'0 0.1 28.1
2015-Aug-30 21:48N 28°26' W 044°03'1 0.3 28.2
2015-Aug-30 20:06N 28°26' W 044°04'1 0.5
2015-Aug-30 18:57N 28°27' W 044°03'0 0.3 28.4
2015-Aug-30 17:56N 28°26' W 044°03'0 0.1 28.4
2015-Aug-30 13:25N 28°26' W 044°04'1 0.2 27.9
2015-Aug-30 09:56N 28°26' W 044°03'144.9 27.8
2015-Aug-30 09:55N 28°26' W 044°02'1 0.7 27.8
2015-Aug-30 08:42N 28°26' W 044°01'1 1.1 27.8
2015-Aug-30 08:11N 28°26' W 044°02'142.8 27.8
2015-Aug-30 08:09N 28°27' W 044°01'0 0.0 27.8
2015-Aug-30 07:09N 28°27' W 044°01'0 0.0 27.8
2015-Aug-30 07:03N 28°27' W 044°01'1 0.5 27.8
2015-Aug-30 05:57N 28°28' W 044°00'112.5 27.9
2015-Aug-30 05:52N 28°29' W 044°01'2 1.2 27.9
2015-Aug-30 04:10N 28°30' W 044°02'0 0.0 27.9
2015-Aug-30 01:46N 28°30' W 044°02'1 0.9 27.9
2015-Aug-30 00:56N 28°31' W 044°02'1 0.7 27.9
2015-Aug-29 23:11N 28°32' W 044°03'1 0.2 27.9
2015-Aug-29 18:09N 28°32' W 044°04'1 0.2 28.1
2015-Aug-29 11:57N 28°31' W 044°05'0 0.0 27.7
2015-Aug-29 11:07N 28°31' W 044°05'0 5.5 27.7
2015-Aug-29 11:03N 28°30' W 044°05'0 0.0 27.7
2015-Aug-29 10:08N 28°30' W 044°05'3 0.5 27.7
2015-Aug-29 04:29N 28°33' W 044°03'218.6 27.8
2015-Aug-29 04:22N 28°35' W 044°04'2 0.3 27.8
2015-Aug-28 22:47N 28°36' W 044°05'1 0.7 27.9
2015-Aug-28 21:02N 28°36' W 044°07'0 0.5 28.0
2015-Aug-28 20:01N 28°36' W 044°07'0 0.6 28.1
2015-Aug-28 19:56N 28°36' W 044°07'2 0.6 28.1
2015-Aug-28 15:57N 28°35' W 044°10'1 1.2 28.1
2015-Aug-28 14:47N 28°35' W 044°11'0 0.1 28.1
2015-Aug-28 14:04N 28°35' W 044°11'1 0.6 28.1
2015-Aug-28 12:28N 28°34' W 044°10'0 0.9 27.9
2015-Aug-28 12:14N 28°33' W 044°10'1 0.3
2015-Aug-28 09:46N 28°33' W 044°10'1 0.4 27.9
2015-Aug-28 08:04N 28°33' W 044°09'1 0.6 27.9
2015-Aug-28 06:54N 28°33' W 044°08'1 1.6
2015-Aug-28 06:15N 28°34' W 044°08'0 0.0 27.9
2015-Aug-28 04:42N 28°34' W 044°08'0 9.6
2015-Aug-28 04:41N 28°35' W 044°09'215.6 28.0
2015-Aug-28 04:34N 28°36' W 044°09'0 0.0 28.0
2015-Aug-28 01:35N 28°36' W 044°09'0 0.0 28.0
2015-Aug-28 00:49N 28°36' W 044°09'1 0.8 28.0
2015-Aug-27 23:57N 28°36' W 044°10'110.9 28.0
2015-Aug-27 23:54N 28°37' W 044°10'0 0.0 28.0
2015-Aug-27 23:09N 28°37' W 044°10'1 4.6 28.0
2015-Aug-27 23:02N 28°37' W 044°10'1 0.2 28.0
2015-Aug-27 20:11N 28°37' W 044°11'2 0.8 28.2
2015-Aug-27 17:57N 28°37' W 044°13'111.9 28.3
2015-Aug-27 17:52N 28°37' W 044°14'0 0.0 28.3
2015-Aug-27 16:10N 28°37' W 044°14'2 0.4 28.2
2015-Aug-27 10:11N 28°34' W 044°14'1 0.5 27.9
2015-Aug-27 08:39N 28°34' W 044°13'1 0.5 27.9
2015-Aug-27 07:10N 28°34' W 044°13'0 4.9 28.0
2015-Aug-27 07:04N 28°35' W 044°12'0 0.0 28.0
2015-Aug-27 06:46N 28°35' W 044°12'3 0.5 28.0
2015-Aug-27 01:02N 28°37' W 044°12'2 0.5 27.9
2015-Aug-26 21:50N 28°39' W 044°13'2 0.6 28.2
2015-Aug-26 18:07N 28°39' W 044°16'2 0.6 28.8
2015-Aug-26 14:42N 28°37' W 044°18'0 0.0 28.4
2015-Aug-26 13:53N 28°37' W 044°18'1 1.1 28.2
2015-Aug-26 13:02N 28°36' W 044°17'2 0.4 28.1
2015-Aug-26 08:57N 28°35' W 044°16'025.5 27.8
2015-Aug-26 08:56N 28°35' W 044°15'0 0.3 27.8
2015-Aug-26 07:12N 28°35' W 044°15'0 0.2
2015-Aug-26 05:02N 28°36' W 044°14'1 6.6 27.9
2015-Aug-26 04:53N 28°37' W 044°14'1 0.2
2015-Aug-26 00:42N 28°38' W 044°13'0 0.0 28.0
2015-Aug-25 23:50N 28°38' W 044°13'0 0.5 28.1
2015-Aug-25 23:02N 28°38' W 044°14'1 9.5 28.1
2015-Aug-25 22:55N 28°39' W 044°15'0 0.1
2015-Aug-25 22:05N 28°39' W 044°14'1 0.5 28.2
2015-Aug-25 20:37N 28°39' W 044°15'0 0.9 28.3
2015-Aug-25 20:11N 28°38' W 044°16'0 0.0 28.3
2015-Aug-25 18:56N 28°38' W 044°16'2 0.4 28.3
2015-Aug-25 14:51N 28°37' W 044°17'1 0.2 28.1
2015-Aug-25 11:48N 28°37' W 044°17'0 2.1 27.8
2015-Aug-25 11:42N 28°37' W 044°17'159.0
2015-Aug-25 11:41N 28°36' W 044°18'1 0.3 27.7
2015-Aug-25 09:11N 28°36' W 044°17'1 0.5 27.7
2015-Aug-25 06:57N 28°35' W 044°16'1 0.4 27.7
2015-Aug-25 05:10N 28°35' W 044°15'256.4 27.7
2015-Aug-25 05:08N 28°36' W 044°13'0 0.0 27.7
2015-Aug-25 01:02N 28°36' W 044°13'110.0 27.9
2015-Aug-25 00:57N 28°37' W 044°13'0 0.0 27.9
2015-Aug-25 00:10N 28°37' W 044°13'1 1.0 27.9
2015-Aug-24 23:17N 28°37' W 044°13'1 0.3 27.9
2015-Aug-24 20:56N 28°38' W 044°14'1 4.7 28.1
2015-Aug-24 20:49N 28°38' W 044°14'0 0.1 28.1
2015-Aug-24 19:09N 28°38' W 044°14'013.1 28.4
2015-Aug-24 19:07N 28°38' W 044°15'1 0.4 28.4
2015-Aug-24 15:07N 28°38' W 044°16'0 0.0 28.0
2015-Aug-24 13:50N 28°38' W 044°16'1 0.5 27.8
2015-Aug-24 12:03N 28°37' W 044°17'1 5.6
2015-Aug-24 11:57N 28°37' W 044°17'0 0.0 27.7
2015-Aug-24 11:08N 28°37' W 044°17'1 0.4 27.7
2015-Aug-24 08:32N 28°36' W 044°17'0 0.5 27.7
2015-Aug-24 08:04N 28°36' W 044°17'1 0.6 27.7
2015-Aug-24 06:51N 28°35' W 044°16'2 0.2 27.8
2015-Aug-23 22:51N 28°35' W 044°14'0 0.0 27.9
2015-Aug-23 20:57N 28°35' W 044°14'0 0.1 27.9
2015-Aug-23 19:17N 28°35' W 044°14'1 0.2 27.9
2015-Aug-23 16:56N 28°35' W 044°14'0 0.0 27.9
2015-Aug-23 16:54N 28°35' W 044°14'1 0.4 27.9
2015-Aug-23 14:50N 28°35' W 044°14'0 0.0 27.5
2015-Aug-23 14:09N 28°35' W 044°14'1 0.3 27.6
2015-Aug-23 10:11N 28°34' W 044°15'1 0.4 27.9
2015-Aug-23 07:56N 28°33' W 044°15'2 0.6 27.9
2015-Aug-23 03:57N 28°31' W 044°14'0 0.1 27.9
2015-Aug-23 01:40N 28°31' W 044°13'0 0.0 27.9
2015-Aug-23 00:51N 28°31' W 044°13'0 0.2 28.0
2015-Aug-23 00:07N 28°31' W 044°13'0 1.9 28.0
2015-Aug-23 00:01N 28°31' W 044°13'0 0.1 28.0
2015-Aug-22 21:48N 28°31' W 044°13'1 0.9 28.0
2015-Aug-22 21:08N 28°31' W 044°13'0 0.2 28.1
2015-Aug-22 18:49N 28°31' W 044°12'0 0.3 28.2
2015-Aug-22 17:11N 28°31' W 044°12'1 0.2 28.1
2015-Aug-22 11:52N 28°31' W 044°13'1 0.5 27.9
2015-Aug-22 09:49N 28°31' W 044°14'2 1.2 27.9
2015-Aug-22 08:02N 28°29' W 044°15'0 0.1 27.9
2015-Aug-22 07:10N 28°29' W 044°15'1 0.2 27.9
2015-Aug-22 04:07N 28°28' W 044°14'223.4 27.9
2015-Aug-22 04:03N 28°27' W 044°14'1 0.1 27.9
2015-Aug-21 17:57N 28°27' W 044°14'1 0.2 28.2
2015-Aug-21 13:56N 28°27' W 044°14'0 0.2 27.9
2015-Aug-21 12:11N 28°27' W 044°15'110.7 27.9
2015-Aug-21 12:07N 28°27' W 044°15'0 0.4 27.9
2015-Aug-21 10:56N 28°27' W 044°16'0 0.3 27.9
2015-Aug-21 10:01N 28°27' W 044°15'0 3.9 27.9
2015-Aug-21 09:59N 28°27' W 044°15'110.3 27.9
2015-Aug-21 09:53N 28°27' W 044°17'0 0.0 27.9
2015-Aug-21 09:14N 28°27' W 044°17'0 0.0 27.9
2015-Aug-21 08:26N 28°27' W 044°17'1 2.2 27.9
2015-Aug-21 08:10N 28°27' W 044°17'1 0.3 27.9
2015-Aug-21 05:56N 28°27' W 044°18'116.8 27.9
2015-Aug-21 05:53N 28°26' W 044°18'2 1.1 27.9
2015-Aug-21 04:13N 28°24' W 044°18'   28.0

Dump ship's entire track history